createdAt,value
2022-12-02T00:00:07.030Z,1.592407
2022-12-02T00:03:32.386Z,1.542053
2022-12-02T00:06:57.674Z,1.521912
2022-12-02T00:10:23.030Z,1.521912
2022-12-02T00:13:48.358Z,1.582336
2022-12-02T00:17:13.700Z,1.552124
2022-12-02T00:20:39.048Z,1.552124
2022-12-02T00:24:04.377Z,1.471558
2022-12-02T00:27:29.744Z,1.481628
2022-12-02T00:30:55.114Z,1.421204
2022-12-02T00:34:20.425Z,1.441345
2022-12-02T00:37:45.779Z,1.451416
2022-12-02T00:41:11.171Z,1.471558
2022-12-02T00:44:36.503Z,1.411133
2022-12-02T00:48:01.853Z,1.421204
2022-12-02T00:51:27.160Z,1.451416
2022-12-02T00:54:52.707Z,1.471558
2022-12-02T00:58:17.813Z,1.451416
2022-12-02T01:01:43.132Z,1.360779
2022-12-02T01:05:08.477Z,1.300354
2022-12-02T01:08:33.743Z,1.078796
2022-12-02T01:11:59.046Z,1.048584
2022-12-02T01:15:24.380Z,1.058655
2022-12-02T01:18:49.771Z,1.109009
2022-12-02T01:22:15.128Z,1.11908
2022-12-02T01:25:40.406Z,0.907593
2022-12-02T01:29:05.715Z,0.968018
2022-12-02T01:32:31.013Z,1.048584
2022-12-02T01:35:56.320Z,1.058655
2022-12-02T01:39:21.657Z,1.058655
2022-12-02T01:42:46.933Z,1.048584
2022-12-02T01:46:12.282Z,0.978088
2022-12-02T01:49:37.582Z,0.827026
2022-12-02T01:53:02.902Z,0.545044
2022-12-02T01:56:28.241Z,0.333557
2022-12-02T01:59:53.533Z,0.464478
2022-12-02T02:03:18.824Z,0.514832
2022-12-02T02:06:44.160Z,0.605469
2022-12-02T02:10:09.482Z,0.696106
2022-12-02T02:13:34.858Z,0.696106
2022-12-02T02:17:00.182Z,0.696106
2022-12-02T02:20:25.456Z,0.696106
2022-12-02T02:23:50.788Z,0.726318
2022-12-02T02:27:16.163Z,0.827026
2022-12-02T02:30:41.587Z,0.74646
2022-12-02T02:34:06.802Z,0.696106
2022-12-02T02:37:32.118Z,0.61554
2022-12-02T02:40:57.490Z,0.61554
2022-12-02T02:44:25.783Z,0.645752
2022-12-02T02:47:48.220Z,0.756531
2022-12-02T02:51:13.511Z,0.786743
2022-12-02T02:54:38.846Z,0.645752
2022-12-02T02:58:04.142Z,0.49469
2022-12-02T03:01:29.557Z,0.565186
2022-12-02T03:04:54.816Z,0.655823
2022-12-02T03:08:20.108Z,0.675964
2022-12-02T03:11:45.475Z,0.675964
2022-12-02T03:15:10.841Z,0.605469
2022-12-02T03:18:36.163Z,0.675964
2022-12-02T03:22:01.556Z,0.353699
2022-12-02T03:25:26.835Z,0.333557
2022-12-02T03:28:52.169Z,0.182495
2022-12-02T03:32:17.510Z,0.152283
2022-12-02T03:35:42.865Z,0.142212
2022-12-02T03:39:08.235Z,0.212708
2022-12-02T03:42:33.540Z,0.132141
2022-12-02T03:45:58.990Z,0.263062
2022-12-02T03:49:24.283Z,0.323486
2022-12-02T03:52:49.654Z,0.414124
2022-12-02T03:56:15.003Z,0.504761
2022-12-02T03:59:40.309Z,0.36377
2022-12-02T04:03:05.699Z,0.232849
2022-12-02T04:06:30.946Z,0.283203
2022-12-02T04:09:56.290Z,0.152283
2022-12-02T04:13:21.631Z,0.24292
2022-12-02T04:16:46.879Z,0.202637
2022-12-02T04:20:12.185Z,0.101929
2022-12-02T04:23:37.485Z,0.132141
2022-12-02T04:27:02.832Z,0.031433
2022-12-02T04:30:28.198Z,0.081787
2022-12-02T04:33:53.509Z,0.101929
2022-12-02T04:37:18.805Z,0.031433
2022-12-02T04:40:44.135Z,0.081787
2022-12-02T04:44:12.565Z,-0.028992
2022-12-02T04:47:34.788Z,-0.00885
2022-12-02T04:51:00.091Z,-0.159912
2022-12-02T04:54:25.481Z,-0.210266
2022-12-02T04:57:50.719Z,-0.039062
2022-12-02T05:01:16.027Z,-0.028992
2022-12-02T05:04:41.405Z,0.071716
2022-12-02T05:08:06.669Z,0.142212
2022-12-02T05:11:36.055Z,0.142212
2022-12-02T05:14:57.310Z,-0.00885
2022-12-02T05:18:22.611Z,-0.039062
2022-12-02T05:21:47.951Z,0.081787
2022-12-02T05:25:13.237Z,0.031433
2022-12-02T05:28:38.494Z,0.132141
2022-12-02T05:32:03.824Z,0.212708
2022-12-02T05:35:29.145Z,0.132141
2022-12-02T05:38:54.512Z,0.142212
2022-12-02T05:42:19.777Z,0.132141
2022-12-02T05:45:45.100Z,0.001221
2022-12-02T05:49:10.452Z,0.001221
2022-12-02T05:52:35.739Z,-0.049133
2022-12-02T05:56:01.133Z,-0.069275
2022-12-02T05:59:26.422Z,-0.250549
2022-12-02T06:02:51.850Z,-0.26062
2022-12-02T06:06:17.054Z,-0.26062
2022-12-02T06:09:42.363Z,-0.190125
2022-12-02T06:13:07.720Z,-0.159912
2022-12-02T06:16:33.092Z,-0.159912
2022-12-02T06:19:58.311Z,-0.139771
2022-12-02T06:23:23.678Z,-0.028992
2022-12-02T06:26:48.988Z,0.152283
2022-12-02T06:30:14.367Z,0.232849
2022-12-02T06:33:39.678Z,0.152283
2022-12-02T06:37:05.006Z,0.182495
2022-12-02T06:40:30.350Z,0.112
2022-12-02T06:43:55.683Z,0.071716
2022-12-02T06:47:21.081Z,0.142212
2022-12-02T06:50:46.368Z,0.101929
2022-12-02T06:54:11.670Z,0.152283
2022-12-02T06:57:37.014Z,0.172424
2022-12-02T07:01:02.437Z,0.313416
2022-12-02T07:04:27.675Z,0.353699
2022-12-02T07:07:52.988Z,0.081787
2022-12-02T07:11:18.252Z,0.132141
2022-12-02T07:14:43.553Z,-0.028992
2022-12-02T07:18:08.867Z,-0.099487
2022-12-02T07:21:34.199Z,-0.039062
2022-12-02T07:24:59.460Z,0.071716
2022-12-02T07:28:24.772Z,0.031433
2022-12-02T07:31:50.084Z,0.031433
2022-12-02T07:35:15.378Z,0.001221
2022-12-02T07:39:05.067Z,-0.109558
2022-12-02T07:42:05.966Z,0.021362
2022-12-02T07:45:31.302Z,0.182495
2022-12-02T07:48:57.398Z,0.293274
2022-12-02T07:52:21.925Z,0.313416
2022-12-02T07:55:47.272Z,0.24292
2022-12-02T07:59:13.458Z,0.283203
2022-12-02T08:02:37.857Z,0.24292
2022-12-02T08:06:03.139Z,0.323486
2022-12-02T08:09:28.507Z,0.232849
2022-12-02T08:12:53.803Z,0.263062
2022-12-02T08:16:19.090Z,0.24292
2022-12-02T08:19:44.439Z,0.202637
2022-12-02T08:23:09.714Z,0.263062
2022-12-02T08:26:35.014Z,0.414124
2022-12-02T08:30:00.517Z,0.444336
2022-12-02T08:33:25.613Z,0.333557
2022-12-02T08:36:50.948Z,0.393982
2022-12-02T08:40:16.269Z,0.142212
2022-12-02T08:43:41.620Z,0.152283
2022-12-02T08:47:06.967Z,0.182495
2022-12-02T08:50:32.260Z,0.101929
2022-12-02T08:53:57.568Z,0.112
2022-12-02T08:57:22.877Z,0.152283
2022-12-02T09:00:48.197Z,0.232849
2022-12-02T09:04:13.492Z,0.283203
2022-12-02T09:07:38.807Z,0.444336
2022-12-02T09:11:04.145Z,0.263062
2022-12-02T09:14:29.435Z,0.172424
2022-12-02T09:17:54.701Z,0.112
2022-12-02T09:21:20.030Z,-0.049133
2022-12-02T09:24:53.147Z,-0.00885
2022-12-02T09:28:18.181Z,-0.00885
2022-12-02T09:31:44.347Z,0.112
2022-12-02T09:35:08.776Z,0.24292
2022-12-02T09:38:34.083Z,0.313416
2022-12-02T09:41:59.371Z,0.283203
2022-12-02T09:45:24.648Z,0.202637
2022-12-02T09:48:49.950Z,0.263062
2022-12-02T09:52:15.240Z,0.293274
2022-12-02T09:55:40.564Z,0.293274
2022-12-02T09:59:05.806Z,0.36377
2022-12-02T10:02:31.165Z,0.323486
2022-12-02T10:05:56.442Z,0.323486
2022-12-02T10:09:21.793Z,0.263062
2022-12-02T10:12:47.120Z,0.283203
2022-12-02T10:16:12.535Z,0.414124
2022-12-02T10:19:37.737Z,0.383911
2022-12-02T10:23:03.036Z,0.293274
2022-12-02T10:26:28.611Z,0.313416
2022-12-02T10:29:53.990Z,0.383911
2022-12-02T10:33:19.342Z,0.474548
2022-12-02T10:36:44.639Z,0.353699
2022-12-02T10:40:09.955Z,0.414124
2022-12-02T10:43:35.223Z,0.474548
2022-12-02T10:47:00.612Z,0.414124
2022-12-02T10:50:25.862Z,0.323486
2022-12-02T10:53:51.204Z,0.36377
2022-12-02T10:57:16.544Z,0.313416
2022-12-02T11:00:44.270Z,0.464478
2022-12-02T11:04:07.157Z,0.565186
2022-12-02T11:07:32.478Z,0.545044
2022-12-02T11:10:57.729Z,0.534973
2022-12-02T11:14:23.042Z,0.444336
2022-12-02T11:17:48.357Z,0.474548
2022-12-02T11:21:13.734Z,0.444336
2022-12-02T11:24:39.018Z,0.49469
2022-12-02T11:28:04.338Z,0.393982
2022-12-02T11:31:29.694Z,0.464478
2022-12-02T11:35:16.189Z,0.49469
2022-12-02T11:38:20.273Z,0.696106
2022-12-02T11:41:45.590Z,0.696106
2022-12-02T11:45:10.898Z,0.87738
2022-12-02T11:48:36.220Z,0.968018
2022-12-02T11:52:06.700Z,0.907593
2022-12-02T11:55:26.862Z,0.796814
2022-12-02T11:58:52.228Z,0.726318
2022-12-02T12:02:17.585Z,0.61554
2022-12-02T12:05:42.821Z,0.645752
2022-12-02T12:09:08.109Z,0.514832
2022-12-02T12:12:33.473Z,0.61554
2022-12-02T12:15:58.757Z,0.696106
2022-12-02T12:19:24.050Z,0.675964
2022-12-02T12:22:49.341Z,0.514832
2022-12-02T12:26:14.648Z,0.645752
2022-12-02T12:29:40.141Z,0.655823
2022-12-02T12:33:05.496Z,0.756531
2022-12-02T12:36:30.855Z,0.726318
2022-12-02T12:39:56.168Z,0.675964
2022-12-02T12:43:21.496Z,0.645752
2022-12-02T12:46:46.879Z,0.645752
2022-12-02T12:50:12.370Z,0.645752
2022-12-02T12:53:37.633Z,0.595398
2022-12-02T12:57:02.996Z,0.49469
2022-12-02T13:00:28.282Z,0.504761
2022-12-02T13:03:53.627Z,0.424194
2022-12-02T13:07:19.255Z,0.464478
2022-12-02T13:10:44.579Z,0.575256
2022-12-02T13:14:12.452Z,0.353699
2022-12-02T13:17:37.873Z,0.24292
2022-12-02T13:21:03.158Z,0.24292
2022-12-02T13:24:28.504Z,0.323486
2022-12-02T13:27:53.811Z,0.424194
2022-12-02T13:31:19.216Z,0.313416
2022-12-02T13:34:44.496Z,0.212708
2022-12-02T13:38:09.947Z,0.112
2022-12-02T13:41:35.290Z,0.112
2022-12-02T13:45:00.629Z,0.071716
2022-12-02T13:48:26.039Z,0.132141
2022-12-02T13:51:51.369Z,0.212708
2022-12-02T13:55:16.783Z,0.323486
2022-12-02T13:58:42.138Z,0.182495
2022-12-02T14:02:07.576Z,0.283203
2022-12-02T14:05:32.938Z,0.232849
2022-12-02T14:08:58.293Z,0.152283
2022-12-02T14:12:23.726Z,0.081787
2022-12-02T14:15:49.115Z,0.081787
2022-12-02T14:19:14.380Z,-0.149841
2022-12-02T14:22:39.703Z,-0.028992
2022-12-02T14:26:05.108Z,-0.00885
2022-12-02T14:29:30.502Z,-0.00885
2022-12-02T15:04:37.868Z,-0.542603
2022-12-02T15:08:03.192Z,-0.613098
2022-12-02T15:11:28.395Z,-0.582886
2022-12-02T15:14:56.648Z,-0.643311
2022-12-02T15:18:18.970Z,-0.643311
2022-12-02T15:21:44.306Z,-0.603027
2022-12-02T15:25:09.555Z,-0.572815
2022-12-02T15:28:34.844Z,-0.603027
2022-12-02T15:32:00.211Z,-0.552673
2022-12-02T15:35:25.429Z,-0.462036
2022-12-02T15:38:50.733Z,-0.371399
2022-12-02T15:42:16.047Z,-0.462036
2022-12-02T15:45:41.354Z,-0.401611
2022-12-02T15:49:06.719Z,-0.522461
2022-12-02T15:52:32.022Z,-0.522461
2022-12-02T15:55:57.374Z,-0.51239
2022-12-02T15:59:22.645Z,-0.653381
2022-12-02T16:02:52.853Z,-0.582886
2022-12-02T16:06:13.283Z,-0.542603
2022-12-02T16:09:38.635Z,-0.472107
2022-12-02T16:13:03.889Z,-0.673523
2022-12-02T16:16:29.753Z,-0.643311
2022-12-02T16:19:55.135Z,-0.703735
2022-12-02T16:23:20.583Z,-0.76416
2022-12-02T16:26:48.404Z,-0.643311
2022-12-02T16:30:11.227Z,-0.754089
2022-12-02T16:33:36.475Z,-0.784302
2022-12-02T16:37:01.845Z,-0.834656
2022-12-02T16:40:27.205Z,-0.824585
2022-12-02T16:43:52.579Z,-0.76416
2022-12-02T16:47:17.892Z,-0.552673
2022-12-02T16:50:43.125Z,-0.552673
2022-12-02T16:54:08.409Z,-0.623169
2022-12-02T16:57:35.281Z,-0.653381
2022-12-02T17:01:00.671Z,-0.653381
2022-12-02T17:04:25.887Z,-0.613098
2022-12-02T17:07:51.218Z,-0.582886
2022-12-02T17:11:16.378Z,-0.643311
2022-12-02T17:14:41.612Z,-0.643311
2022-12-02T17:18:06.841Z,-0.51239
2022-12-02T17:21:32.082Z,-0.472107
2022-12-02T17:24:57.310Z,-0.401611
2022-12-02T17:28:22.537Z,-0.431824
2022-12-02T17:31:47.929Z,-0.391541
2022-12-02T17:35:13.109Z,-0.341187
2022-12-02T17:38:38.412Z,-0.341187
2022-12-02T17:42:03.898Z,-0.310974
2022-12-02T17:45:29.432Z,-0.371399
2022-12-02T17:48:54.625Z,-0.341187
2022-12-02T17:52:21.000Z,-0.341187
2022-12-02T17:55:45.214Z,-0.220337
2022-12-02T17:59:10.400Z,-0.149841
2022-12-02T18:02:35.753Z,-0.099487
2022-12-02T18:06:00.843Z,-0.099487
2022-12-02T18:09:26.078Z,0.001221
2022-12-02T18:12:51.402Z,0.071716
2022-12-02T18:16:16.688Z,-0.028992
2022-12-02T18:19:41.858Z,-0.028992
2022-12-02T18:23:07.091Z,-0.039062
2022-12-02T18:26:32.321Z,-0.139771
2022-12-02T18:29:57.628Z,-0.149841
2022-12-02T18:33:22.845Z,-0.139771
2022-12-02T18:36:48.077Z,-0.26062
2022-12-02T18:40:13.346Z,-0.210266
2022-12-02T18:43:38.561Z,-0.180054
2022-12-02T18:47:04.043Z,-0.159912
2022-12-02T18:50:29.252Z,-0.069275
2022-12-02T18:53:54.461Z,0.101929
2022-12-02T18:57:19.706Z,0.101929
2022-12-02T19:00:44.982Z,0.041504
2022-12-02T19:04:10.209Z,-0.00885
2022-12-02T19:07:36.025Z,-0.109558
2022-12-02T19:11:01.074Z,0.081787
2022-12-02T19:14:26.277Z,-0.028992
2022-12-02T19:17:51.507Z,0.001221
2022-12-02T19:21:20.041Z,-0.028992
2022-12-02T19:24:41.963Z,-0.069275
2022-12-02T19:28:07.239Z,-0.028992
2022-12-02T19:31:32.591Z,0.001221
2022-12-02T19:34:57.704Z,0.132141
2022-12-02T19:38:22.959Z,0.142212
2022-12-02T19:41:48.177Z,0.152283
2022-12-02T19:45:13.422Z,0.182495
2022-12-02T19:48:38.645Z,0.172424
2022-12-02T19:52:03.918Z,0.081787
2022-12-02T19:55:29.186Z,-0.049133
2022-12-02T19:58:54.381Z,-0.028992
2022-12-02T20:02:19.772Z,-0.028992
2022-12-02T20:05:44.854Z,-0.028992
2022-12-02T20:09:10.031Z,-0.159912
2022-12-02T20:12:35.264Z,-0.180054
2022-12-02T20:16:00.541Z,-0.180054
2022-12-02T20:19:25.677Z,-0.079346
2022-12-02T20:22:50.882Z,-0.149841
2022-12-02T20:26:16.083Z,-0.139771
2022-12-02T20:29:41.318Z,-0.220337
2022-12-02T20:33:06.480Z,-0.139771
2022-12-02T20:36:31.717Z,-0.230408
2022-12-02T20:39:56.908Z,-0.310974
2022-12-02T20:43:22.110Z,-0.26062
2022-12-02T20:46:47.490Z,-0.280762
2022-12-02T20:50:12.617Z,-0.290833
2022-12-02T20:53:37.861Z,-0.341187
2022-12-02T20:57:03.134Z,-0.310974
2022-12-02T21:00:28.423Z,-0.391541
2022-12-02T21:03:53.615Z,-0.310974
2022-12-02T21:07:18.793Z,-0.099487
2022-12-02T21:10:44.001Z,-0.220337
2022-12-02T21:14:09.206Z,-0.099487
2022-12-02T21:17:34.418Z,-0.039062
2022-12-02T21:20:59.652Z,-0.079346
2022-12-02T21:24:24.834Z,-0.149841
2022-12-02T21:27:50.045Z,-0.079346
2022-12-02T21:31:15.275Z,-0.079346
2022-12-02T21:34:40.465Z,-0.109558
2022-12-02T21:38:05.688Z,-0.180054
2022-12-02T21:41:30.882Z,-0.139771
2022-12-02T21:44:56.094Z,-0.028992
2022-12-02T21:48:21.289Z,0.071716
2022-12-02T21:51:46.497Z,-0.069275
2022-12-02T21:55:11.737Z,-0.180054
2022-12-02T21:58:36.927Z,-0.079346
2022-12-02T22:02:02.178Z,-0.079346
2022-12-02T22:05:27.330Z,-0.190125
2022-12-02T22:08:52.542Z,-0.099487
2022-12-02T22:12:17.843Z,0.071716
2022-12-02T22:15:42.964Z,-0.049133
2022-12-02T22:19:13.397Z,-0.049133
2022-12-02T22:22:33.377Z,-0.049133
2022-12-02T22:25:58.611Z,0.021362
2022-12-02T22:29:23.840Z,0.001221
2022-12-02T22:32:49.011Z,0.081787
2022-12-02T22:36:14.218Z,0.142212
2022-12-02T22:39:39.440Z,0.031433
2022-12-02T22:43:04.639Z,0.132141
2022-12-02T22:46:29.926Z,0.041504
2022-12-02T22:49:55.041Z,0.081787
2022-12-02T22:53:20.239Z,0.071716
2022-12-02T22:56:45.443Z,0.112
2022-12-02T23:00:10.675Z,0.001221
2022-12-02T23:03:35.938Z,-0.109558
2022-12-02T23:07:02.484Z,-0.028992
2022-12-02T23:10:27.691Z,-0.099487
2022-12-02T23:13:52.895Z,-0.159912
2022-12-02T23:17:18.107Z,-0.139771
2022-12-02T23:20:43.353Z,-0.180054
2022-12-02T23:24:08.530Z,-0.00885
2022-12-02T23:27:33.733Z,0.112
2022-12-02T23:30:59.053Z,0.152283
2022-12-02T23:34:24.133Z,0.172424
2022-12-02T23:37:49.361Z,0.041504
2022-12-02T23:41:14.571Z,0.071716
2022-12-02T23:44:39.779Z,-0.049133
2022-12-02T23:48:04.997Z,0.001221
2022-12-02T23:51:30.193Z,0.001221
2022-12-02T23:54:55.655Z,0.031433
2022-12-02T23:58:20.598Z,0.081787
